Terminal Aerodrome Forecast
Issued by NWS

Home | Current Version | Previous Version | Text Only | Print | Product List | Glossary On
Versions: 1 2 3 4 5 6 7 8 9 10 11 12 13 14 15 16
000
FTUS46 KSEW 170520
TAFHQM
TAF
KHQM 170520Z 1706/1806 14008KT P6SM OVC022
     FM171200 16020G30KT 2SM RA BR BKN006 OVC011
     FM171800 24015G25KT 4SM -SHRA SCT010 BKN020
     FM172000 26012KT P6SM SCT035 BKN250
     FM180100 VRB03KT P6SM FEW040 BKN200=

USA.gov is the U.S. government's official web portal to all federal, state and local government web resources and services.